Redbird, Oklahoma
Current Conditions -  °F | °C
As of 6:53 PM on Tuesday 27 Jan 2015 (Local Time) from KMKO Reporting Station
Clear Clear  
Wind Chill: 14°   Ceiling: Unl
Heat Index: 14°   Visibility: 10mi
Dew Point:   Wind: 6mph
Humidity: 42%   Direction: 140°SE
Pressure: 30.09"   Gusts: NA
Location:  35.89°N, 95.59°W
Report Text: KMKO 280053Z AUTO 14005KT 10SM CLR 14/01 A3009 RMK AO2 SLP190 T01390011
Loading
Personal Weather Stations






























Interactive Weather Map New forecast layout! Learn more

10-Day Weather Forecast

Advertisements
Track Severe Weather on mobile